sensor_id;sensor_type;location;lat;lon;timestamp;P1;durP1;ratioP1;P2;durP2;ratioP2
53545;SDS011;39432;51.902;10.844;2023-09-30T00:01:50;8.75;;;2.33;;
53545;SDS011;39432;51.902;10.844;2023-09-30T00:04:41;6.72;;;2.22;;
53545;SDS011;39432;51.902;10.844;2023-09-30T00:07:31;8.75;;;2.40;;
53545;SDS011;39432;51.902;10.844;2023-09-30T00:10:22;8.93;;;2.35;;
53545;SDS011;39432;51.902;10.844;2023-09-30T00:13:12;7.35;;;2.20;;
53545;SDS011;39432;51.902;10.844;2023-09-30T00:16:03;5.93;;;2.10;;
53545;SDS011;39432;51.902;10.844;2023-09-30T00:18:56;10.57;;;2.63;;
53545;SDS011;39432;51.902;10.844;2023-09-30T00:21:49;10.80;;;2.47;;
53545;SDS011;39432;51.902;10.844;2023-09-30T00:24:39;10.95;;;2.33;;
53545;SDS011;39432;51.902;10.844;2023-09-30T00:27:29;12.48;;;2.45;;
53545;SDS011;39432;51.902;10.844;2023-09-30T00:30:20;9.23;;;2.55;;
53545;SDS011;39432;51.902;10.844;2023-09-30T00:33:10;9.73;;;2.50;;
53545;SDS011;39432;51.902;10.844;2023-09-30T00:36:08;11.35;;;2.58;;
53545;SDS011;39432;51.902;10.844;2023-09-30T00:38:59;9.50;;;2.45;;
53545;SDS011;39432;51.902;10.844;2023-09-30T00:41:51;7.78;;;2.45;;
53545;SDS011;39432;51.902;10.844;2023-09-30T00:44:41;11.35;;;2.50;;
53545;SDS011;39432;51.902;10.844;2023-09-30T00:47:31;15.88;;;3.00;;
53545;SDS011;39432;51.902;10.844;2023-09-30T00:50:23;9.15;;;2.50;;
53545;SDS011;39432;51.902;10.844;2023-09-30T00:53:16;11.95;;;2.58;;
53545;SDS011;39432;51.902;10.844;2023-09-30T00:56:07;11.70;;;2.63;;
53545;SDS011;39432;51.902;10.844;2023-09-30T00:58:58;13.15;;;2.38;;
53545;SDS011;39432;51.902;10.844;2023-09-30T01:01:49;10.38;;;2.63;;
53545;SDS011;39432;51.902;10.844;2023-09-30T01:04:39;6.97;;;2.65;;
53545;SDS011;39432;51.902;10.844;2023-09-30T01:07:30;8.80;;;2.45;;
53545;SDS011;39432;51.902;10.844;2023-09-30T01:10:23;10.80;;;2.28;;
53545;SDS011;39432;51.902;10.844;2023-09-30T01:13:13;8.98;;;2.78;;
53545;SDS011;39432;51.902;10.844;2023-09-30T01:16:05;6.45;;;2.22;;
53545;SDS011;39432;51.902;10.844;2023-09-30T01:18:57;7.13;;;2.47;;
53545;SDS011;39432;51.902;10.844;2023-09-30T01:21:49;6.55;;;2.38;;
53545;SDS011;39432;51.902;10.844;2023-09-30T01:24:42;11.23;;;2.90;;
53545;SDS011;39432;51.902;10.844;2023-09-30T01:27:34;10.75;;;2.78;;
53545;SDS011;39432;51.902;10.844;2023-09-30T01:30:24;12.15;;;2.83;;
53545;SDS011;39432;51.902;10.844;2023-09-30T01:33:15;8.55;;;2.45;;
53545;SDS011;39432;51.902;10.844;2023-09-30T01:36:06;8.05;;;2.80;;
53545;SDS011;39432;51.902;10.844;2023-09-30T01:38:59;9.57;;;2.83;;
53545;SDS011;39432;51.902;10.844;2023-09-30T01:41:49;10.32;;;2.67;;
53545;SDS011;39432;51.902;10.844;2023-09-30T01:44:41;12.63;;;2.30;;
53545;SDS011;39432;51.902;10.844;2023-09-30T01:47:31;8.02;;;2.63;;
53545;SDS011;39432;51.902;10.844;2023-09-30T01:50:21;8.63;;;2.25;;
53545;SDS011;39432;51.902;10.844;2023-09-30T01:53:11;9.95;;;2.30;;
53545;SDS011;39432;51.902;10.844;2023-09-30T01:56:04;9.40;;;2.60;;
53545;SDS011;39432;51.902;10.844;2023-09-30T01:58:54;9.60;;;2.53;;
53545;SDS011;39432;51.902;10.844;2023-09-30T02:01:45;9.10;;;2.10;;
53545;SDS011;39432;51.902;10.844;2023-09-30T02:04:36;8.63;;;2.08;;
53545;SDS011;39432;51.902;10.844;2023-09-30T02:07:27;8.90;;;2.10;;
53545;SDS011;39432;51.902;10.844;2023-09-30T02:10:17;12.05;;;2.75;;
53545;SDS011;39432;51.902;10.844;2023-09-30T02:13:11;12.75;;;2.60;;
53545;SDS011;39432;51.902;10.844;2023-09-30T02:16:10;10.00;;;2.40;;
53545;SDS011;39432;51.902;10.844;2023-09-30T02:19:02;8.93;;;2.25;;
53545;SDS011;39432;51.902;10.844;2023-09-30T02:21:53;13.07;;;2.63;;
53545;SDS011;39432;51.902;10.844;2023-09-30T02:24:43;7.07;;;2.50;;
53545;SDS011;39432;51.902;10.844;2023-09-30T02:27:35;12.93;;;2.42;;
53545;SDS011;39432;51.902;10.844;2023-09-30T02:30:28;10.68;;;2.55;;
53545;SDS011;39432;51.902;10.844;2023-09-30T02:33:19;8.57;;;1.92;;
53545;SDS011;39432;51.902;10.844;2023-09-30T02:36:10;12.88;;;2.50;;
53545;SDS011;39432;51.902;10.844;2023-09-30T02:39:00;7.35;;;2.30;;
53545;SDS011;39432;51.902;10.844;2023-09-30T02:41:50;9.27;;;2.28;;
53545;SDS011;39432;51.902;10.844;2023-09-30T02:44:41;10.60;;;2.38;;
53545;SDS011;39432;51.902;10.844;2023-09-30T02:47:34;11.00;;;2.53;;
53545;SDS011;39432;51.902;10.844;2023-09-30T02:50:24;11.50;;;2.50;;
53545;SDS011;39432;51.902;10.844;2023-09-30T02:53:15;9.45;;;2.10;;
53545;SDS011;39432;51.902;10.844;2023-09-30T02:56:05;8.98;;;2.38;;
53545;SDS011;39432;51.902;10.844;2023-09-30T02:58:56;10.50;;;2.88;;
53545;SDS011;39432;51.902;10.844;2023-09-30T03:01:47;13.30;;;2.53;;
53545;SDS011;39432;51.902;10.844;2023-09-30T03:04:40;8.75;;;1.83;;
53545;SDS011;39432;51.902;10.844;2023-09-30T03:07:30;19.13;;;2.72;;
53545;SDS011;39432;51.902;10.844;2023-09-30T03:10:21;14.05;;;2.42;;
53545;SDS011;39432;51.902;10.844;2023-09-30T03:13:13;11.27;;;2.30;;
53545;SDS011;39432;51.902;10.844;2023-09-30T03:16:05;12.82;;;2.90;;
53545;SDS011;39432;51.902;10.844;2023-09-30T03:18:56;13.15;;;2.88;;
53545;SDS011;39432;51.902;10.844;2023-09-30T03:21:49;16.83;;;2.80;;
53545;SDS011;39432;51.902;10.844;2023-09-30T03:24:39;15.57;;;2.95;;
53545;SDS011;39432;51.902;10.844;2023-09-30T03:27:30;8.50;;;2.28;;
53545;SDS011;39432;51.902;10.844;2023-09-30T03:30:20;10.43;;;2.45;;
53545;SDS011;39432;51.902;10.844;2023-09-30T03:33:11;10.23;;;2.55;;
53545;SDS011;39432;51.902;10.844;2023-09-30T03:36:02;9.90;;;2.47;;
53545;SDS011;39432;51.902;10.844;2023-09-30T03:38:56;11.82;;;2.50;;
53545;SDS011;39432;51.902;10.844;2023-09-30T03:41:47;11.35;;;2.40;;
53545;SDS011;39432;51.902;10.844;2023-09-30T03:44:39;15.98;;;2.30;;
53545;SDS011;39432;51.902;10.844;2023-09-30T03:47:31;14.25;;;2.75;;
53545;SDS011;39432;51.902;10.844;2023-09-30T03:50:21;13.30;;;2.70;;
53545;SDS011;39432;51.902;10.844;2023-09-30T03:53:11;10.00;;;2.28;;
53545;SDS011;39432;51.902;10.844;2023-09-30T03:56:04;15.30;;;2.90;;
53545;SDS011;39432;51.902;10.844;2023-09-30T03:58:55;13.40;;;2.45;;
53545;SDS011;39432;51.902;10.844;2023-09-30T04:01:45;10.38;;;2.53;;
53545;SDS011;39432;51.902;10.844;2023-09-30T04:04:36;8.90;;;2.35;;
53545;SDS011;39432;51.902;10.844;2023-09-30T04:07:26;7.72;;;2.28;;
53545;SDS011;39432;51.902;10.844;2023-09-30T04:10:17;11.02;;;2.45;;
53545;SDS011;39432;51.902;10.844;2023-09-30T04:13:12;12.50;;;2.33;;
53545;SDS011;39432;51.902;10.844;2023-09-30T04:16:02;8.60;;;2.22;;
53545;SDS011;39432;51.902;10.844;2023-09-30T04:18:53;12.65;;;3.13;;
53545;SDS011;39432;51.902;10.844;2023-09-30T04:21:43;9.77;;;2.22;;
53545;SDS011;39432;51.902;10.844;2023-09-30T04:24:33;12.10;;;2.33;;
53545;SDS011;39432;51.902;10.844;2023-09-30T04:27:24;14.00;;;2.40;;
53545;SDS011;39432;51.902;10.844;2023-09-30T04:30:17;12.43;;;2.72;;
53545;SDS011;39432;51.902;10.844;2023-09-30T04:33:10;13.50;;;2.85;;
53545;SDS011;39432;51.902;10.844;2023-09-30T04:36:00;10.43;;;2.50;;
53545;SDS011;39432;51.902;10.844;2023-09-30T04:38:52;13.75;;;2.80;;
53545;SDS011;39432;51.902;10.844;2023-09-30T04:41:42;9.40;;;2.53;;
53545;SDS011;39432;51.902;10.844;2023-09-30T04:44:34;11.90;;;2.85;;
53545;SDS011;39432;51.902;10.844;2023-09-30T04:47:27;10.35;;;2.50;;
53545;SDS011;39432;51.902;10.844;2023-09-30T04:50:17;14.80;;;1.88;;
53545;SDS011;39432;51.902;10.844;2023-09-30T04:53:09;9.68;;;2.10;;
53545;SDS011;39432;51.902;10.844;2023-09-30T04:56:00;9.30;;;1.85;;
53545;SDS011;39432;51.902;10.844;2023-09-30T04:58:50;12.57;;;1.88;;
53545;SDS011;39432;51.902;10.844;2023-09-30T05:01:41;10.15;;;2.85;;
53545;SDS011;39432;51.902;10.844;2023-09-30T05:04:34;5.57;;;1.80;;
53545;SDS011;39432;51.902;10.844;2023-09-30T05:07:24;8.73;;;2.03;;
53545;SDS011;39432;51.902;10.844;2023-09-30T05:10:16;18.70;;;2.63;;
53545;SDS011;39432;51.902;10.844;2023-09-30T05:13:06;10.00;;;2.17;;
53545;SDS011;39432;51.902;10.844;2023-09-30T05:15:57;16.70;;;2.10;;
53545;SDS011;39432;51.902;10.844;2023-09-30T05:18:48;12.48;;;1.60;;
53545;SDS011;39432;51.902;10.844;2023-09-30T05:21:41;10.48;;;1.80;;
53545;SDS011;39432;51.902;10.844;2023-09-30T05:24:32;8.20;;;1.60;;
53545;SDS011;39432;51.902;10.844;2023-09-30T05:27:22;10.48;;;1.77;;
53545;SDS011;39432;51.902;10.844;2023-09-30T05:30:12;9.88;;;1.85;;
53545;SDS011;39432;51.902;10.844;2023-09-30T05:33:06;11.73;;;2.03;;
53545;SDS011;39432;51.902;10.844;2023-09-30T05:36:00;8.35;;;1.90;;
53545;SDS011;39432;51.902;10.844;2023-09-30T05:38:53;18.02;;;2.17;;
53545;SDS011;39432;51.902;10.844;2023-09-30T05:41:45;10.07;;;2.83;;
53545;SDS011;39432;51.902;10.844;2023-09-30T05:44:35;9.98;;;2.22;;
53545;SDS011;39432;51.902;10.844;2023-09-30T05:47:25;8.00;;;2.00;;
53545;SDS011;39432;51.902;10.844;2023-09-30T05:50:16;11.25;;;2.00;;
53545;SDS011;39432;51.902;10.844;2023-09-30T05:53:11;14.40;;;1.95;;
53545;SDS011;39432;51.902;10.844;2023-09-30T05:56:04;12.25;;;2.03;;
53545;SDS011;39432;51.902;10.844;2023-09-30T05:58:54;6.82;;;1.95;;
53545;SDS011;39432;51.902;10.844;2023-09-30T06:01:45;9.57;;;2.05;;
53545;SDS011;39432;51.902;10.844;2023-09-30T06:04:35;8.85;;;2.38;;
53545;SDS011;39432;51.902;10.844;2023-09-30T06:07:26;10.50;;;1.95;;
53545;SDS011;39432;51.902;10.844;2023-09-30T06:10:16;11.80;;;1.98;;
53545;SDS011;39432;51.902;10.844;2023-09-30T06:13:10;7.28;;;1.50;;
53545;SDS011;39432;51.902;10.844;2023-09-30T06:16:02;10.45;;;1.98;;
53545;SDS011;39432;51.902;10.844;2023-09-30T06:18:56;5.68;;;1.60;;
53545;SDS011;39432;51.902;10.844;2023-09-30T06:21:47;13.10;;;2.00;;
53545;SDS011;39432;51.902;10.844;2023-09-30T06:24:37;10.43;;;2.13;;
53545;SDS011;39432;51.902;10.844;2023-09-30T06:27:27;7.47;;;1.85;;
53545;SDS011;39432;51.902;10.844;2023-09-30T06:30:21;7.82;;;1.42;;
53545;SDS011;39432;51.902;10.844;2023-09-30T06:33:18;19.20;;;2.70;;
53545;SDS011;39432;51.902;10.844;2023-09-30T06:36:08;9.45;;;2.15;;
53545;SDS011;39432;51.902;10.844;2023-09-30T06:39:01;14.50;;;2.47;;
53545;SDS011;39432;51.902;10.844;2023-09-30T06:41:52;8.63;;;1.88;;
53545;SDS011;39432;51.902;10.844;2023-09-30T06:44:43;9.63;;;2.03;;
53545;SDS011;39432;51.902;10.844;2023-09-30T06:47:36;9.85;;;2.28;;
53545;SDS011;39432;51.902;10.844;2023-09-30T06:50:28;10.13;;;2.00;;
53545;SDS011;39432;51.902;10.844;2023-09-30T06:53:19;11.23;;;2.38;;
53545;SDS011;39432;51.902;10.844;2023-09-30T06:56:10;10.93;;;2.33;;
53545;SDS011;39432;51.902;10.844;2023-09-30T06:59:02;9.73;;;2.00;;
53545;SDS011;39432;51.902;10.844;2023-09-30T07:01:53;8.32;;;2.17;;
53545;SDS011;39432;51.902;10.844;2023-09-30T07:04:47;6.25;;;1.60;;
53545;SDS011;39432;51.902;10.844;2023-09-30T07:07:37;10.60;;;1.80;;
53545;SDS011;39432;51.902;10.844;2023-09-30T07:10:30;7.55;;;1.85;;
53545;SDS011;39432;51.902;10.844;2023-09-30T07:13:20;9.05;;;1.80;;
53545;SDS011;39432;51.902;10.844;2023-09-30T07:16:10;9.63;;;1.80;;
53545;SDS011;39432;51.902;10.844;2023-09-30T07:19:00;9.52;;;2.30;;
53545;SDS011;39432;51.902;10.844;2023-09-30T07:21:54;8.05;;;1.83;;
53545;SDS011;39432;51.902;10.844;2023-09-30T07:24:51;9.25;;;2.20;;
53545;SDS011;39432;51.902;10.844;2023-09-30T07:27:43;11.35;;;2.70;;
53545;SDS011;39432;51.902;10.844;2023-09-30T07:30:34;8.23;;;2.10;;
53545;SDS011;39432;51.902;10.844;2023-09-30T07:33:24;13.05;;;2.00;;
53545;SDS011;39432;51.902;10.844;2023-09-30T07:36:16;8.55;;;2.03;;
53545;SDS011;39432;51.902;10.844;2023-09-30T07:39:09;10.48;;;2.13;;
53545;SDS011;39432;51.902;10.844;2023-09-30T07:41:59;9.68;;;2.35;;
53545;SDS011;39432;51.902;10.844;2023-09-30T07:44:50;10.85;;;2.00;;
53545;SDS011;39432;51.902;10.844;2023-09-30T07:47:41;14.43;;;2.17;;
53545;SDS011;39432;51.902;10.844;2023-09-30T07:50:31;13.02;;;2.42;;
53545;SDS011;39432;51.902;10.844;2023-09-30T07:53:22;8.15;;;1.90;;
53545;SDS011;39432;51.902;10.844;2023-09-30T07:56:15;16.42;;;2.00;;
53545;SDS011;39432;51.902;10.844;2023-09-30T07:59:05;6.78;;;1.60;;
53545;SDS011;39432;51.902;10.844;2023-09-30T08:01:57;9.68;;;1.98;;
53545;SDS011;39432;51.902;10.844;2023-09-30T08:04:47;8.85;;;1.92;;
53545;SDS011;39432;51.902;10.844;2023-09-30T08:07:37;7.95;;;1.70;;
53545;SDS011;39432;51.902;10.844;2023-09-30T08:10:27;6.57;;;1.63;;
53545;SDS011;39432;51.902;10.844;2023-09-30T08:13:21;8.98;;;1.75;;
53545;SDS011;39432;51.902;10.844;2023-09-30T08:16:12;11.55;;;2.03;;
53545;SDS011;39432;51.902;10.844;2023-09-30T08:19:09;6.15;;;1.55;;
53545;SDS011;39432;51.902;10.844;2023-09-30T08:22:00;8.15;;;1.52;;
53545;SDS011;39432;51.902;10.844;2023-09-30T08:24:50;6.85;;;2.20;;
53545;SDS011;39432;51.902;10.844;2023-09-30T08:27:41;6.38;;;1.83;;
53545;SDS011;39432;51.902;10.844;2023-09-30T08:30:35;8.93;;;1.77;;
53545;SDS011;39432;51.902;10.844;2023-09-30T08:33:26;13.40;;;2.13;;
53545;SDS011;39432;51.902;10.844;2023-09-30T08:36:17;14.35;;;1.90;;
53545;SDS011;39432;51.902;10.844;2023-09-30T08:39:08;6.35;;;1.63;;
53545;SDS011;39432;51.902;10.844;2023-09-30T08:41:59;8.05;;;1.75;;
53545;SDS011;39432;51.902;10.844;2023-09-30T08:44:52;9.85;;;1.63;;
53545;SDS011;39432;51.902;10.844;2023-09-30T08:47:46;6.88;;;1.70;;
53545;SDS011;39432;51.902;10.844;2023-09-30T08:50:38;4.93;;;1.15;;
53545;SDS011;39432;51.902;10.844;2023-09-30T08:53:29;7.03;;;1.40;;
53545;SDS011;39432;51.902;10.844;2023-09-30T08:56:20;7.65;;;1.73;;
53545;SDS011;39432;51.902;10.844;2023-09-30T08:59:14;6.63;;;1.65;;
53545;SDS011;39432;51.902;10.844;2023-09-30T09:02:05;10.50;;;1.75;;
53545;SDS011;39432;51.902;10.844;2023-09-30T09:05:02;13.40;;;1.50;;
53545;SDS011;39432;51.902;10.844;2023-09-30T09:07:53;5.85;;;1.63;;
53545;SDS011;39432;51.902;10.844;2023-09-30T09:10:53;5.53;;;1.23;;
53545;SDS011;39432;51.902;10.844;2023-09-30T09:13:46;4.85;;;1.10;;
53545;SDS011;39432;51.902;10.844;2023-09-30T09:16:47;7.25;;;1.30;;
53545;SDS011;39432;51.902;10.844;2023-09-30T09:19:41;7.45;;;1.90;;
53545;SDS011;39432;51.902;10.844;2023-09-30T09:22:40;5.18;;;1.48;;
53545;SDS011;39432;51.902;10.844;2023-09-30T09:25:31;6.93;;;1.30;;
53545;SDS011;39432;51.902;10.844;2023-09-30T09:28:33;7.68;;;1.60;;
53545;SDS011;39432;51.902;10.844;2023-09-30T09:31:25;8.50;;;1.23;;
53545;SDS011;39432;51.902;10.844;2023-09-30T09:34:17;11.60;;;1.58;;
53545;SDS011;39432;51.902;10.844;2023-09-30T09:37:14;6.55;;;1.48;;
53545;SDS011;39432;51.902;10.844;2023-09-30T09:40:09;9.40;;;1.38;;
53545;SDS011;39432;51.902;10.844;2023-09-30T09:43:01;5.20;;;1.35;;
53545;SDS011;39432;51.902;10.844;2023-09-30T09:45:53;3.83;;;1.30;;
53545;SDS011;39432;51.902;10.844;2023-09-30T09:48:50;8.27;;;1.40;;
53545;SDS011;39432;51.902;10.844;2023-09-30T09:51:45;6.00;;;2.00;;
53545;SDS011;39432;51.902;10.844;2023-09-30T09:54:36;5.93;;;1.00;;
53545;SDS011;39432;51.902;10.844;2023-09-30T09:57:30;10.98;;;1.83;;
53545;SDS011;39432;51.902;10.844;2023-09-30T10:00:22;4.25;;;1.27;;
53545;SDS011;39432;51.902;10.844;2023-09-30T10:03:14;8.02;;;1.65;;
53545;SDS011;39432;51.902;10.844;2023-09-30T10:06:05;5.95;;;1.20;;
53545;SDS011;39432;51.902;10.844;2023-09-30T10:08:56;5.00;;;1.30;;
53545;SDS011;39432;51.902;10.844;2023-09-30T10:11:49;5.80;;;1.30;;
53545;SDS011;39432;51.902;10.844;2023-09-30T10:14:48;7.95;;;1.48;;
53545;SDS011;39432;51.902;10.844;2023-09-30T10:20:48;8.05;;;1.70;;
53545;SDS011;39432;51.902;10.844;2023-09-30T10:23:38;7.10;;;1.33;;
53545;SDS011;39432;51.902;10.844;2023-09-30T10:26:29;9.05;;;2.08;;
53545;SDS011;39432;51.902;10.844;2023-09-30T10:29:19;8.93;;;1.20;;
53545;SDS011;39432;51.902;10.844;2023-09-30T10:32:12;12.15;;;2.13;;
53545;SDS011;39432;51.902;10.844;2023-09-30T10:35:02;6.38;;;1.77;;
53545;SDS011;39432;51.902;10.844;2023-09-30T10:38:36;8.63;;;1.38;;
53545;SDS011;39432;51.902;10.844;2023-09-30T10:41:48;8.00;;;1.30;;
53545;SDS011;39432;51.902;10.844;2023-09-30T10:44:39;7.30;;;1.42;;
53545;SDS011;39432;51.902;10.844;2023-09-30T10:47:38;5.25;;;1.20;;
53545;SDS011;39432;51.902;10.844;2023-09-30T10:50:49;5.82;;;1.38;;
53545;SDS011;39432;51.902;10.844;2023-09-30T10:53:45;10.88;;;2.53;;
53545;SDS011;39432;51.902;10.844;2023-09-30T10:56:38;7.43;;;1.20;;
53545;SDS011;39432;51.902;10.844;2023-09-30T10:59:29;9.02;;;1.20;;
53545;SDS011;39432;51.902;10.844;2023-09-30T11:02:22;7.47;;;1.45;;
53545;SDS011;39432;51.902;10.844;2023-09-30T11:05:16;4.20;;;1.33;;
53545;SDS011;39432;51.902;10.844;2023-09-30T11:08:22;5.78;;;1.35;;
53545;SDS011;39432;51.902;10.844;2023-09-30T11:11:13;6.55;;;1.48;;
53545;SDS011;39432;51.902;10.844;2023-09-30T11:14:04;5.70;;;1.10;;
53545;SDS011;39432;51.902;10.844;2023-09-30T11:17:06;4.25;;;1.23;;
53545;SDS011;39432;51.902;10.844;2023-09-30T11:19:57;5.95;;;2.25;;
53545;SDS011;39432;51.902;10.844;2023-09-30T11:22:50;5.03;;;1.15;;
53545;SDS011;39432;51.902;10.844;2023-09-30T11:25:40;6.53;;;1.52;;
53545;SDS011;39432;51.902;10.844;2023-09-30T11:28:38;7.93;;;1.77;;
53545;SDS011;39432;51.902;10.844;2023-09-30T11:31:29;6.43;;;1.55;;
53545;SDS011;39432;51.902;10.844;2023-09-30T11:34:30;5.07;;;1.10;;
53545;SDS011;39432;51.902;10.844;2023-09-30T11:37:22;5.65;;;1.20;;
53545;SDS011;39432;51.902;10.844;2023-09-30T11:40:15;5.15;;;1.45;;
53545;SDS011;39432;51.902;10.844;2023-09-30T11:43:07;12.05;;;2.00;;
53545;SDS011;39432;51.902;10.844;2023-09-30T11:46:06;3.90;;;0.95;;
53545;SDS011;39432;51.902;10.844;2023-09-30T11:48:59;6.22;;;1.58;;
53545;SDS011;39432;51.902;10.844;2023-09-30T11:51:52;10.02;;;1.67;;
53545;SDS011;39432;51.902;10.844;2023-09-30T11:54:43;6.35;;;1.33;;
53545;SDS011;39432;51.902;10.844;2023-09-30T11:57:37;3.67;;;1.40;;
53545;SDS011;39432;51.902;10.844;2023-09-30T12:00:27;5.15;;;1.30;;
53545;SDS011;39432;51.902;10.844;2023-09-30T12:03:17;5.07;;;1.20;;
53545;SDS011;39432;51.902;10.844;2023-09-30T12:06:08;4.68;;;1.20;;
53545;SDS011;39432;51.902;10.844;2023-09-30T12:09:00;5.63;;;1.77;;
53545;SDS011;39432;51.902;10.844;2023-09-30T12:11:51;4.30;;;1.17;;
53545;SDS011;39432;51.902;10.844;2023-09-30T12:14:44;4.28;;;1.25;;
53545;SDS011;39432;51.902;10.844;2023-09-30T12:17:37;3.97;;;1.00;;
53545;SDS011;39432;51.902;10.844;2023-09-30T12:20:28;5.00;;;1.50;;
53545;SDS011;39432;51.902;10.844;2023-09-30T12:23:18;6.15;;;1.50;;
53545;SDS011;39432;51.902;10.844;2023-09-30T12:26:09;4.88;;;1.27;;
53545;SDS011;39432;51.902;10.844;2023-09-30T12:29:03;4.10;;;1.08;;
53545;SDS011;39432;51.902;10.844;2023-09-30T12:31:56;5.45;;;1.35;;
53545;SDS011;39432;51.902;10.844;2023-09-30T12:34:48;4.45;;;1.13;;
53545;SDS011;39432;51.902;10.844;2023-09-30T12:37:39;3.72;;;1.20;;
53545;SDS011;39432;51.902;10.844;2023-09-30T12:40:32;3.22;;;1.10;;
53545;SDS011;39432;51.902;10.844;2023-09-30T12:43:23;4.10;;;1.02;;
53545;SDS011;39432;51.902;10.844;2023-09-30T12:46:13;6.07;;;1.67;;
53545;SDS011;39432;51.902;10.844;2023-09-30T12:49:08;8.23;;;1.30;;
53545;SDS011;39432;51.902;10.844;2023-09-30T12:51:59;5.28;;;1.25;;
53545;SDS011;39432;51.902;10.844;2023-09-30T12:54:49;4.55;;;1.48;;
53545;SDS011;39432;51.902;10.844;2023-09-30T12:57:40;4.63;;;1.02;;
53545;SDS011;39432;51.902;10.844;2023-09-30T13:00:30;5.03;;;1.48;;
53545;SDS011;39432;51.902;10.844;2023-09-30T13:03:22;5.43;;;1.60;;
53545;SDS011;39432;51.902;10.844;2023-09-30T13:06:15;5.30;;;1.35;;
53545;SDS011;39432;51.902;10.844;2023-09-30T13:09:06;5.93;;;1.20;;
53545;SDS011;39432;51.902;10.844;2023-09-30T13:11:56;4.72;;;1.58;;
53545;SDS011;39432;51.902;10.844;2023-09-30T13:14:47;6.10;;;1.38;;
53545;SDS011;39432;51.902;10.844;2023-09-30T13:17:38;5.53;;;1.15;;
53545;SDS011;39432;51.902;10.844;2023-09-30T13:20:28;5.50;;;1.58;;
53545;SDS011;39432;51.902;10.844;2023-09-30T13:23:21;4.45;;;1.17;;
53545;SDS011;39432;51.902;10.844;2023-09-30T13:26:11;5.40;;;1.30;;
53545;SDS011;39432;51.902;10.844;2023-09-30T13:29:02;4.72;;;1.05;;
53545;SDS011;39432;51.902;10.844;2023-09-30T13:31:52;5.53;;;1.40;;
53545;SDS011;39432;51.902;10.844;2023-09-30T13:34:42;4.10;;;1.10;;
53545;SDS011;39432;51.902;10.844;2023-09-30T13:37:32;5.75;;;1.00;;
53545;SDS011;39432;51.902;10.844;2023-09-30T13:40:26;3.28;;;1.10;;
53545;SDS011;39432;51.902;10.844;2023-09-30T13:43:17;3.35;;;1.30;;
53545;SDS011;39432;51.902;10.844;2023-09-30T13:46:07;5.05;;;1.50;;
53545;SDS011;39432;51.902;10.844;2023-09-30T13:48:59;3.80;;;1.00;;
53545;SDS011;39432;51.902;10.844;2023-09-30T13:51:51;3.90;;;1.33;;
53545;SDS011;39432;51.902;10.844;2023-09-30T13:54:41;6.57;;;1.52;;
53545;SDS011;39432;51.902;10.844;2023-09-30T13:57:34;6.75;;;1.38;;
53545;SDS011;39432;51.902;10.844;2023-09-30T14:00:25;7.40;;;1.55;;
53545;SDS011;39432;51.902;10.844;2023-09-30T14:03:15;6.75;;;1.50;;
53545;SDS011;39432;51.902;10.844;2023-09-30T14:06:09;7.25;;;1.48;;
53545;SDS011;39432;51.902;10.844;2023-09-30T14:09:00;7.53;;;1.42;;
53545;SDS011;39432;51.902;10.844;2023-09-30T14:11:51;5.50;;;1.33;;
53545;SDS011;39432;51.902;10.844;2023-09-30T14:14:44;5.55;;;1.63;;
53545;SDS011;39432;51.902;10.844;2023-09-30T14:17:35;6.35;;;1.40;;
53545;SDS011;39432;51.902;10.844;2023-09-30T14:20:25;4.07;;;1.10;;
53545;SDS011;39432;51.902;10.844;2023-09-30T14:23:16;5.97;;;1.38;;
53545;SDS011;39432;51.902;10.844;2023-09-30T14:26:06;4.93;;;1.23;;
53545;SDS011;39432;51.902;10.844;2023-09-30T14:28:58;4.25;;;1.33;;
53545;SDS011;39432;51.902;10.844;2023-09-30T14:31:51;4.03;;;1.55;;
53545;SDS011;39432;51.902;10.844;2023-09-30T14:34:41;4.45;;;1.23;;
53545;SDS011;39432;51.902;10.844;2023-09-30T14:37:32;3.35;;;1.38;;
53545;SDS011;39432;51.902;10.844;2023-09-30T14:40:22;7.32;;;1.63;;
53545;SDS011;39432;51.902;10.844;2023-09-30T14:43:12;7.00;;;2.10;;
53545;SDS011;39432;51.902;10.844;2023-09-30T14:46:03;5.20;;;1.40;;
53545;SDS011;39432;51.902;10.844;2023-09-30T14:48:58;7.53;;;2.10;;
53545;SDS011;39432;51.902;10.844;2023-09-30T14:51:49;10.32;;;2.22;;
53545;SDS011;39432;51.902;10.844;2023-09-30T14:54:39;5.05;;;1.30;;
53545;SDS011;39432;51.902;10.844;2023-09-30T14:57:29;6.03;;;1.70;;
53545;SDS011;39432;51.902;10.844;2023-09-30T15:00:20;6.13;;;2.00;;
53545;SDS011;39432;51.902;10.844;2023-09-30T15:03:12;6.20;;;2.10;;
53545;SDS011;39432;51.902;10.844;2023-09-30T15:06:05;4.53;;;1.65;;
53545;SDS011;39432;51.902;10.844;2023-09-30T15:08:56;5.18;;;1.80;;
53545;SDS011;39432;51.902;10.844;2023-09-30T15:11:46;5.18;;;1.98;;
53545;SDS011;39432;51.902;10.844;2023-09-30T15:14:36;8.02;;;2.20;;
53545;SDS011;39432;51.902;10.844;2023-09-30T15:17:27;6.03;;;1.85;;
53545;SDS011;39432;51.902;10.844;2023-09-30T15:20:17;5.70;;;1.90;;
53545;SDS011;39432;51.902;10.844;2023-09-30T15:23:10;7.32;;;1.92;;
53545;SDS011;39432;51.902;10.844;2023-09-30T15:26:00;7.00;;;1.90;;
53545;SDS011;39432;51.902;10.844;2023-09-30T15:28:51;8.02;;;2.20;;
53545;SDS011;39432;51.902;10.844;2023-09-30T15:31:41;5.07;;;1.65;;
53545;SDS011;39432;51.902;10.844;2023-09-30T15:34:31;7.13;;;1.63;;
53545;SDS011;39432;51.902;10.844;2023-09-30T15:37:22;5.82;;;1.80;;
53545;SDS011;39432;51.902;10.844;2023-09-30T15:40:14;6.88;;;1.98;;
53545;SDS011;39432;51.902;10.844;2023-09-30T15:43:05;4.40;;;1.60;;
53545;SDS011;39432;51.902;10.844;2023-09-30T15:45:55;3.67;;;1.52;;
53545;SDS011;39432;51.902;10.844;2023-09-30T15:48:46;5.00;;;1.63;;
53545;SDS011;39432;51.902;10.844;2023-09-30T15:51:36;6.38;;;2.10;;
53545;SDS011;39432;51.902;10.844;2023-09-30T15:54:27;6.78;;;1.67;;
53545;SDS011;39432;51.902;10.844;2023-09-30T15:57:20;5.53;;;1.90;;
53545;SDS011;39432;51.902;10.844;2023-09-30T16:00:10;7.82;;;2.17;;
53545;SDS011;39432;51.902;10.844;2023-09-30T16:03:01;4.45;;;1.75;;
53545;SDS011;39432;51.902;10.844;2023-09-30T16:05:52;6.70;;;1.77;;
53545;SDS011;39432;51.902;10.844;2023-09-30T16:08:42;6.78;;;2.17;;
53545;SDS011;39432;51.902;10.844;2023-09-30T16:11:33;6.65;;;2.08;;
53545;SDS011;39432;51.902;10.844;2023-09-30T16:14:26;3.78;;;1.52;;
53545;SDS011;39432;51.902;10.844;2023-09-30T16:17:16;7.38;;;1.80;;
53545;SDS011;39432;51.902;10.844;2023-09-30T16:20:07;5.82;;;1.77;;
53545;SDS011;39432;51.902;10.844;2023-09-30T16:22:58;5.03;;;1.88;;
53545;SDS011;39432;51.902;10.844;2023-09-30T16:25:48;5.70;;;1.70;;
53545;SDS011;39432;51.902;10.844;2023-09-30T16:28:39;7.50;;;1.85;;
53545;SDS011;39432;51.902;10.844;2023-09-30T16:31:32;5.85;;;1.33;;
53545;SDS011;39432;51.902;10.844;2023-09-30T16:34:23;5.45;;;2.20;;
53545;SDS011;39432;51.902;10.844;2023-09-30T16:37:13;5.63;;;1.95;;
53545;SDS011;39432;51.902;10.844;2023-09-30T16:40:04;6.22;;;2.08;;
53545;SDS011;39432;51.902;10.844;2023-09-30T16:42:56;8.63;;;2.25;;
53545;SDS011;39432;51.902;10.844;2023-09-30T16:45:46;7.10;;;2.30;;
53545;SDS011;39432;51.902;10.844;2023-09-30T16:48:39;5.57;;;1.90;;
53545;SDS011;39432;51.902;10.844;2023-09-30T16:51:31;7.85;;;2.40;;
53545;SDS011;39432;51.902;10.844;2023-09-30T16:54:21;10.00;;;3.10;;
53545;SDS011;39432;51.902;10.844;2023-09-30T16:57:11;7.60;;;2.35;;
53545;SDS011;39432;51.902;10.844;2023-09-30T17:00:02;8.68;;;2.83;;